createdAt,value
2023-03-03T00:01:26.237Z,3.62
2023-03-03T00:03:55.422Z,3.58
2023-03-03T00:06:24.934Z,3.57
2023-03-03T00:08:53.602Z,3.55
2023-03-03T00:11:21.919Z,3.52
2023-03-03T00:13:52.928Z,3.53
2023-03-03T00:16:28.620Z,3.52
2023-03-03T00:18:57.441Z,3.52
2023-03-03T00:21:42.592Z,3.53
2023-03-03T00:24:35.600Z,3.50
2023-03-03T00:27:27.171Z,3.46
2023-03-03T00:29:58.467Z,3.48
2023-03-03T00:32:53.498Z,3.48
2023-03-03T00:35:39.523Z,3.49
2023-03-03T00:38:14.970Z,3.51
2023-03-03T00:40:43.276Z,3.50
2023-03-03T00:43:28.181Z,3.49
2023-03-03T00:45:59.724Z,3.49
2023-03-03T00:48:41.400Z,3.48
2023-03-03T00:51:19.390Z,3.45
2023-03-03T00:53:47.315Z,3.46
2023-03-03T00:56:15.905Z,3.47
2023-03-03T00:58:48.158Z,3.48
2023-03-03T01:01:18.819Z,3.49
2023-03-03T01:03:49.813Z,3.50
2023-03-03T01:06:17.829Z,3.49
2023-03-03T01:08:45.798Z,3.49
2023-03-03T01:11:20.256Z,3.49
2023-03-03T01:13:51.696Z,3.50
2023-03-03T01:16:20.363Z,3.50
2023-03-03T01:18:48.364Z,3.50
2023-03-03T01:21:16.356Z,3.48
2023-03-03T01:23:44.575Z,3.48
2023-03-03T01:26:12.590Z,3.48
2023-03-03T01:28:40.611Z,3.45
2023-03-03T01:31:09.301Z,3.45
2023-03-03T01:33:37.498Z,3.44
2023-03-03T01:36:06.614Z,3.43
2023-03-03T01:38:39.088Z,3.40
2023-03-03T01:41:07.293Z,3.40
2023-03-03T01:43:35.295Z,3.39
2023-03-03T01:46:03.354Z,3.38
2023-03-03T01:48:42.743Z,3.39
2023-03-03T01:51:31.221Z,3.37
2023-03-03T01:54:02.811Z,3.37
2023-03-03T01:56:31.298Z,3.39
2023-03-03T01:59:05.931Z,3.38
2023-03-03T02:01:34.653Z,3.38
2023-03-03T02:04:04.264Z,3.36
2023-03-03T02:06:38.827Z,3.35
2023-03-03T02:09:21.772Z,3.34
2023-03-03T02:11:52.622Z,3.32
2023-03-03T02:14:20.715Z,3.31
2023-03-03T02:16:49.003Z,3.31
2023-03-03T02:19:38.643Z,3.30
2023-03-03T02:22:07.550Z,3.29
2023-03-03T02:24:51.476Z,3.28
2023-03-03T02:27:21.060Z,3.30
2023-03-03T02:29:49.368Z,3.27
2023-03-03T02:32:17.475Z,3.27
2023-03-03T02:34:49.242Z,3.26
2023-03-03T02:37:18.549Z,3.24
2023-03-03T02:39:46.676Z,3.26
2023-03-03T02:42:23.906Z,3.26
2023-03-03T02:44:55.241Z,3.23
2023-03-03T02:47:23.287Z,3.24
2023-03-03T02:49:51.475Z,3.23
2023-03-03T02:52:19.917Z,3.21
2023-03-03T02:54:48.653Z,3.20
2023-03-03T02:57:16.642Z,3.18
2023-03-03T02:59:44.750Z,3.17
2023-03-03T03:02:14.773Z,3.17
2023-03-03T03:04:43.778Z,3.17
2023-03-03T03:07:14.098Z,3.16
2023-03-03T03:09:43.093Z,3.14
2023-03-03T03:12:11.525Z,3.14
2023-03-03T03:14:40.703Z,3.15
2023-03-03T03:17:09.007Z,3.14
2023-03-03T03:19:36.993Z,3.17
2023-03-03T03:22:05.533Z,3.17
2023-03-03T03:24:35.050Z,3.17
2023-03-03T03:27:05.614Z,3.17
2023-03-03T03:29:33.723Z,3.19
2023-03-03T03:32:01.875Z,3.19
2023-03-03T03:34:29.963Z,3.18
2023-03-03T03:36:58.702Z,3.17
2023-03-03T03:39:27.931Z,3.18
2023-03-03T03:41:56.782Z,3.18
2023-03-03T03:44:25.387Z,3.18
2023-03-03T03:46:53.579Z,3.20
2023-03-03T03:49:21.824Z,3.17
2023-03-03T03:51:51.470Z,3.17
2023-03-03T03:54:21.372Z,3.15
2023-03-03T03:56:50.159Z,3.13
2023-03-03T03:59:18.355Z,3.13
2023-03-03T04:01:48.225Z,3.12
2023-03-03T04:04:17.781Z,3.12
2023-03-03T04:06:46.115Z,3.11
2023-03-03T04:09:15.568Z,3.12
2023-03-03T04:11:43.935Z,3.11
2023-03-03T04:14:12.779Z,3.10
2023-03-03T04:16:40.865Z,3.09
2023-03-03T04:19:10.121Z,3.13
2023-03-03T04:21:39.592Z,3.13
2023-03-03T04:24:09.041Z,3.14
2023-03-03T04:26:38.832Z,3.14
2023-03-03T04:29:07.188Z,3.13
2023-03-03T04:31:35.411Z,3.12
2023-03-03T04:34:04.336Z,3.12
2023-03-03T04:36:32.688Z,3.12
2023-03-03T04:39:00.945Z,3.12
2023-03-03T04:41:29.439Z,3.12
2023-03-03T04:43:58.433Z,3.12
2023-03-03T04:46:29.075Z,3.13
2023-03-03T04:48:57.799Z,3.14
2023-03-03T04:51:27.138Z,3.14
2023-03-03T04:53:55.266Z,3.16
2023-03-03T04:56:23.663Z,3.18
2023-03-03T04:58:52.157Z,3.19
2023-03-03T05:01:21.596Z,3.20
2023-03-03T05:03:50.071Z,3.23
2023-03-03T05:06:19.070Z,3.25
2023-03-03T05:08:47.256Z,3.23
2023-03-03T05:11:16.328Z,3.22
2023-03-03T05:13:44.749Z,3.22
2023-03-03T05:16:13.078Z,3.23
2023-03-03T05:18:42.141Z,3.23
2023-03-03T05:21:12.589Z,3.23
2023-03-03T05:23:40.808Z,3.24
2023-03-03T05:26:09.557Z,3.24
2023-03-03T05:28:38.668Z,3.26
2023-03-03T05:31:06.671Z,3.29
2023-03-03T05:33:34.920Z,3.30
2023-03-03T05:36:02.939Z,3.32
2023-03-03T05:38:31.040Z,3.34
2023-03-03T05:41:00.185Z,3.38
2023-03-03T05:43:29.315Z,3.37
2023-03-03T05:45:58.071Z,3.40
2023-03-03T05:48:26.166Z,3.42
2023-03-03T05:50:59.597Z,3.41
2023-03-03T05:53:29.323Z,3.41
2023-03-03T05:55:58.625Z,3.41
2023-03-03T05:58:27.761Z,3.45
2023-03-03T06:00:56.767Z,3.47
2023-03-03T06:03:24.813Z,3.50
2023-03-03T06:05:52.961Z,3.52
2023-03-03T06:08:21.208Z,3.56
2023-03-03T06:10:57.098Z,3.59
2023-03-03T06:13:26.240Z,3.65
2023-03-03T06:15:54.178Z,3.68
2023-03-03T06:18:22.535Z,3.68
2023-03-03T06:20:56.108Z,3.74
2023-03-03T06:23:24.332Z,3.79
2023-03-03T06:25:53.394Z,3.80
2023-03-03T06:28:21.801Z,3.84
2023-03-03T06:30:56.501Z,3.87
2023-03-03T06:33:26.345Z,3.92
2023-03-03T06:35:57.847Z,3.95
2023-03-03T06:38:25.926Z,4.00
2023-03-03T06:40:56.953Z,4.07
2023-03-03T06:43:25.257Z,4.12
2023-03-03T06:45:53.381Z,4.18
2023-03-03T06:48:21.719Z,4.25
2023-03-03T06:50:49.781Z,4.26
2023-03-03T06:53:19.510Z,4.32
2023-03-03T06:55:49.915Z,4.38
2023-03-03T06:58:21.816Z,4.42
2023-03-03T07:00:59.530Z,4.46
2023-03-03T07:03:39.191Z,4.51
2023-03-03T07:06:26.030Z,4.57
2023-03-03T07:08:57.640Z,4.62
2023-03-03T07:11:26.014Z,4.68
2023-03-03T07:13:56.409Z,4.71
2023-03-03T07:16:32.803Z,4.78
2023-03-03T07:19:05.593Z,4.85
2023-03-03T07:21:36.827Z,4.92
2023-03-03T07:24:27.825Z,4.97
2023-03-03T07:27:08.126Z,5.06
2023-03-03T07:29:42.353Z,5.12
2023-03-03T07:32:45.212Z,5.22
2023-03-03T07:35:36.343Z,5.32
2023-03-03T07:38:32.797Z,5.46
2023-03-03T07:41:05.028Z,5.58
2023-03-03T07:43:48.604Z,5.67
2023-03-03T07:46:36.886Z,5.78
2023-03-03T07:49:34.741Z,5.92
2023-03-03T07:52:29.240Z,6.01
2023-03-03T07:55:00.727Z,6.16
2023-03-03T07:57:39.889Z,6.20
2023-03-03T08:00:32.588Z,6.27
2023-03-03T08:03:14.482Z,6.34
2023-03-03T08:05:45.151Z,6.44
2023-03-03T08:08:44.091Z,6.53
2023-03-03T08:11:12.470Z,6.61
2023-03-03T08:13:46.083Z,6.80
2023-03-03T08:16:15.602Z,6.98
2023-03-03T08:18:50.118Z,7.14
2023-03-03T08:21:22.209Z,7.34
2023-03-03T08:23:53.331Z,7.53
2023-03-03T08:26:23.317Z,7.69
2023-03-03T08:28:53.449Z,7.76
2023-03-03T08:31:38.145Z,7.85
2023-03-03T08:34:09.462Z,7.80
2023-03-03T08:36:37.537Z,8.01
2023-03-03T08:39:06.072Z,8.08
2023-03-03T08:41:34.725Z,8.02
2023-03-03T08:44:03.530Z,8.19
2023-03-03T08:46:34.059Z,8.19
2023-03-03T08:49:05.329Z,8.32
2023-03-03T08:51:37.176Z,8.43
2023-03-03T08:54:07.671Z,8.50
2023-03-03T08:56:35.928Z,8.39
2023-03-03T08:59:04.823Z,8.43
2023-03-03T09:01:35.506Z,8.58
2023-03-03T09:04:06.666Z,8.75
2023-03-03T09:06:34.961Z,8.90
2023-03-03T09:09:05.278Z,9.05
2023-03-03T09:11:34.227Z,9.05
2023-03-03T09:14:12.330Z,9.14
2023-03-03T09:17:18.350Z,9.10
2023-03-03T09:19:46.732Z,9.09
2023-03-03T09:22:24.137Z,9.20
2023-03-03T09:24:57.208Z,9.12
2023-03-03T09:27:35.427Z,9.15
2023-03-03T09:30:45.067Z,8.90
2023-03-03T09:33:30.296Z,8.71
2023-03-03T09:36:17.178Z,8.66
2023-03-03T09:38:46.475Z,8.70
2023-03-03T09:41:44.983Z,8.67
2023-03-03T09:44:33.107Z,8.73
2023-03-03T09:47:22.363Z,8.62
2023-03-03T09:50:02.553Z,8.66
2023-03-03T09:52:41.618Z,8.83
2023-03-03T09:55:18.846Z,9.01
2023-03-03T09:58:04.605Z,9.27
2023-03-03T10:00:59.614Z,9.33
2023-03-03T10:03:41.106Z,9.26
2023-03-03T10:06:40.022Z,9.37
2023-03-03T10:09:35.385Z,9.18
2023-03-03T10:12:29.574Z,9.31
2023-03-03T10:15:30.157Z,9.37
2023-03-03T10:18:20.350Z,9.67
2023-03-03T10:21:04.455Z,9.85
2023-03-03T10:23:41.900Z,9.88
2023-03-03T10:26:44.820Z,9.77
2023-03-03T10:29:52.596Z,9.85
2023-03-03T10:32:52.496Z,9.81
2023-03-03T10:35:37.417Z,9.87
2023-03-03T10:38:40.778Z,9.76
2023-03-03T10:41:35.442Z,9.99
2023-03-03T10:44:18.334Z,9.90
2023-03-03T10:46:59.593Z,10.00
2023-03-03T10:49:41.555Z,9.85
2023-03-03T10:52:45.532Z,9.76
2023-03-03T10:55:31.881Z,9.58
2023-03-03T10:58:37.756Z,9.33
2023-03-03T11:01:39.204Z,9.29
2023-03-03T11:04:51.403Z,9.26
2023-03-03T11:07:33.794Z,9.26
2023-03-03T11:10:18.995Z,9.38
2023-03-03T11:13:25.264Z,9.66
2023-03-03T11:16:11.485Z,9.90
2023-03-03T11:18:42.935Z,9.85
2023-03-03T11:21:29.895Z,9.73
2023-03-03T11:24:24.108Z,9.47
2023-03-03T11:27:22.328Z,9.45
2023-03-03T11:30:10.227Z,9.62
2023-03-03T11:32:49.504Z,9.61
2023-03-03T11:35:26.612Z,9.73
2023-03-03T11:38:09.586Z,9.95
2023-03-03T11:40:56.829Z,9.83
2023-03-03T11:43:37.410Z,9.79
2023-03-03T11:46:12.049Z,9.72
2023-03-03T11:49:05.187Z,9.79
2023-03-03T11:52:03.045Z,10.03
2023-03-03T11:54:55.611Z,10.24
2023-03-03T11:57:37.118Z,9.88
2023-03-03T12:00:28.463Z,9.92
2023-03-03T12:03:12.212Z,9.75
2023-03-03T12:05:52.932Z,9.85
2023-03-03T12:08:32.837Z,10.00
2023-03-03T12:11:25.874Z,10.50
2023-03-03T12:14:28.210Z,10.70
2023-03-03T12:17:41.177Z,10.89
2023-03-03T12:20:30.145Z,11.65
2023-03-03T12:23:08.215Z,12.67
2023-03-03T12:25:51.722Z,13.35
2023-03-03T12:28:24.348Z,13.80
2023-03-03T12:31:11.057Z,14.26
2023-03-03T12:33:59.071Z,13.84
2023-03-03T12:36:34.525Z,13.98
2023-03-03T12:39:25.320Z,12.76
2023-03-03T12:42:20.366Z,12.25
2023-03-03T12:45:07.982Z,12.78
2023-03-03T12:47:41.291Z,13.64
2023-03-03T12:50:10.880Z,13.40
2023-03-03T12:53:29.813Z,13.83
2023-03-03T12:56:09.582Z,14.32
2023-03-03T12:58:59.471Z,14.82
2023-03-03T13:01:46.757Z,15.40
2023-03-03T13:04:40.366Z,15.13
2023-03-03T13:07:21.837Z,15.29
2023-03-03T13:10:09.077Z,15.06
2023-03-03T13:12:48.305Z,13.91
2023-03-03T13:15:33.209Z,13.36
2023-03-03T13:18:21.624Z,12.63
2023-03-03T13:21:05.420Z,12.75
2023-03-03T13:24:14.853Z,13.38
2023-03-03T13:26:50.257Z,13.90
2023-03-03T13:29:34.172Z,14.00
2023-03-03T13:32:12.809Z,12.59
2023-03-03T13:34:55.472Z,11.62
2023-03-03T13:37:32.279Z,12.72
2023-03-03T13:40:12.489Z,13.16
2023-03-03T13:42:55.971Z,13.20
2023-03-03T13:45:46.100Z,13.08
2023-03-03T13:48:49.963Z,12.90
2023-03-03T13:51:20.788Z,12.33
2023-03-03T13:54:13.007Z,11.66
2023-03-03T13:56:52.603Z,11.30
2023-03-03T13:59:31.131Z,10.92
2023-03-03T14:02:36.664Z,11.23
2023-03-03T14:05:39.802Z,12.66
2023-03-03T14:08:31.651Z,14.18
2023-03-03T14:11:22.233Z,15.01
2023-03-03T14:14:00.261Z,15.37
2023-03-03T14:16:46.052Z,14.47
2023-03-03T14:19:31.807Z,13.60
2023-03-03T14:22:25.547Z,12.75
2023-03-03T14:25:07.899Z,11.79
2023-03-03T14:28:01.428Z,11.52
2023-03-03T14:30:37.757Z,11.15
2023-03-03T14:33:09.376Z,10.80
2023-03-03T14:35:51.801Z,10.66
2023-03-03T14:38:24.683Z,10.49
2023-03-03T14:41:24.348Z,10.46
2023-03-03T14:44:20.809Z,10.37
2023-03-03T14:47:20.339Z,10.18
2023-03-03T14:49:49.391Z,9.88
2023-03-03T14:52:17.676Z,9.72
2023-03-03T14:54:55.529Z,9.81
2023-03-03T14:57:46.829Z,9.78
2023-03-03T15:00:15.114Z,10.31
2023-03-03T15:03:00.288Z,11.30
2023-03-03T15:05:33.312Z,12.25
2023-03-03T15:08:05.479Z,12.91
2023-03-03T15:10:44.596Z,12.41
2023-03-03T15:13:19.750Z,12.43
2023-03-03T15:16:18.216Z,12.50
2023-03-03T15:19:00.482Z,12.44
2023-03-03T15:21:38.360Z,12.82
2023-03-03T15:24:24.751Z,12.25
2023-03-03T15:27:02.923Z,11.94
2023-03-03T15:30:05.209Z,11.54
2023-03-03T15:33:02.262Z,11.70
2023-03-03T15:35:31.176Z,11.61
2023-03-03T15:38:29.723Z,11.49
2023-03-03T15:41:06.724Z,11.14
2023-03-03T15:43:45.249Z,10.81
2023-03-03T15:46:35.376Z,10.28
2023-03-03T15:49:46.592Z,9.73
2023-03-03T15:52:35.220Z,9.30
2023-03-03T15:55:11.856Z,8.98
2023-03-03T15:57:52.062Z,8.73
2023-03-03T16:00:51.179Z,8.39
2023-03-03T16:03:46.898Z,8.25
2023-03-03T16:06:33.450Z,8.08
2023-03-03T16:09:10.680Z,7.89
2023-03-03T16:12:16.321Z,7.78
2023-03-03T16:14:57.833Z,7.58
2023-03-03T16:17:42.145Z,7.46
2023-03-03T16:20:22.860Z,7.33
2023-03-03T16:22:58.666Z,7.22
2023-03-03T16:25:40.920Z,7.11
2023-03-03T16:28:43.274Z,7.01
2023-03-03T16:31:19.800Z,6.93
2023-03-03T16:34:12.439Z,6.81
2023-03-03T16:37:03.026Z,6.65
2023-03-03T16:39:46.380Z,6.60
2023-03-03T16:42:16.338Z,6.53
2023-03-03T16:45:19.065Z,6.47
2023-03-03T16:47:58.334Z,6.39
2023-03-03T16:50:50.261Z,6.34
2023-03-03T16:53:38.917Z,6.29
2023-03-03T16:56:37.866Z,6.25
2023-03-03T16:59:28.658Z,6.16
2023-03-03T17:02:22.015Z,6.13
2023-03-03T17:05:00.718Z,6.09
2023-03-03T17:07:49.615Z,6.05
2023-03-03T17:11:02.247Z,6.00
2023-03-03T17:14:06.444Z,5.93
2023-03-03T17:17:03.380Z,5.89
2023-03-03T17:20:02.861Z,5.85
2023-03-03T17:23:06.928Z,5.82
2023-03-03T17:25:54.061Z,5.79
2023-03-03T17:28:34.225Z,5.75
2023-03-03T17:31:24.763Z,5.73
2023-03-03T17:34:03.780Z,5.70
2023-03-03T17:37:16.859Z,5.67
2023-03-03T17:40:25.141Z,5.64
2023-03-03T17:43:05.355Z,5.61
2023-03-03T17:45:41.353Z,5.59
2023-03-03T17:48:42.640Z,5.58
2023-03-03T17:51:58.420Z,5.56
2023-03-03T17:54:42.449Z,5.51
2023-03-03T17:57:29.042Z,5.44
2023-03-03T18:00:32.054Z,5.35
2023-03-03T18:03:03.170Z,5.25
2023-03-03T18:05:40.577Z,5.14
2023-03-03T18:08:33.584Z,5.05
2023-03-03T18:11:10.948Z,4.96
2023-03-03T18:14:02.890Z,4.90
2023-03-03T18:16:50.823Z,4.83
2023-03-03T18:19:46.661Z,4.75
2023-03-03T18:22:25.592Z,4.69
2023-03-03T18:25:01.487Z,4.63
2023-03-03T18:27:32.746Z,4.57
2023-03-03T18:30:08.055Z,4.49
2023-03-03T18:32:56.501Z,4.42
2023-03-03T18:35:27.765Z,4.35
2023-03-03T18:37:57.626Z,4.28
2023-03-03T18:40:34.601Z,4.22
2023-03-03T18:43:42.383Z,4.18
2023-03-03T18:46:32.390Z,4.15
2023-03-03T18:49:12.890Z,4.11
2023-03-03T18:51:42.850Z,4.04
2023-03-03T18:54:17.739Z,4.00
2023-03-03T18:56:48.440Z,3.94
2023-03-03T18:59:41.779Z,3.86
2023-03-03T19:02:13.452Z,3.80
2023-03-03T19:05:09.093Z,3.76
2023-03-03T19:07:49.052Z,3.71
2023-03-03T19:10:23.272Z,3.67
2023-03-03T19:12:55.457Z,3.65
2023-03-03T19:15:30.312Z,3.63
2023-03-03T19:18:01.947Z,3.61
2023-03-03T19:20:58.014Z,3.58
2023-03-03T19:23:26.206Z,3.54
2023-03-03T19:26:25.893Z,3.51
2023-03-03T19:29:03.226Z,3.47
2023-03-03T19:32:04.225Z,3.44
2023-03-03T19:34:55.875Z,3.40
2023-03-03T19:37:27.279Z,3.38
2023-03-03T19:40:03.499Z,3.35
2023-03-03T19:42:46.509Z,3.29
2023-03-03T19:45:36.399Z,3.28
2023-03-03T19:48:16.692Z,3.23
2023-03-03T19:51:00.031Z,3.19
2023-03-03T19:53:54.760Z,3.16
2023-03-03T19:56:45.884Z,3.09
2023-03-03T19:59:32.936Z,3.07
2023-03-03T20:02:29.364Z,3.05
2023-03-03T20:05:16.658Z,3.03
2023-03-03T20:07:56.035Z,3.01
2023-03-03T20:11:01.286Z,2.99
2023-03-03T20:14:03.128Z,2.96
2023-03-03T20:16:41.982Z,2.94
2023-03-03T20:19:30.123Z,2.90
2023-03-03T20:22:08.502Z,2.88
2023-03-03T20:24:46.337Z,2.85
2023-03-03T20:27:19.641Z,2.82
2023-03-03T20:30:08.347Z,2.80
2023-03-03T20:32:43.967Z,2.77
2023-03-03T20:35:31.253Z,2.74
2023-03-03T20:38:07.366Z,2.70
2023-03-03T20:40:48.739Z,2.67
2023-03-03T20:43:51.573Z,2.65
2023-03-03T20:46:44.569Z,2.62
2023-03-03T20:49:34.637Z,2.59
2023-03-03T20:52:21.305Z,2.58
2023-03-03T20:55:10.745Z,2.59
2023-03-03T20:58:11.024Z,2.63
2023-03-03T21:00:53.583Z,2.65
2023-03-03T21:03:42.140Z,2.64
2023-03-03T21:06:19.699Z,2.64
2023-03-03T21:08:49.935Z,2.64
2023-03-03T21:11:21.206Z,2.62
2023-03-03T21:13:53.649Z,2.59
2023-03-03T21:16:21.644Z,2.55
2023-03-03T21:19:03.280Z,2.51
2023-03-03T21:21:34.470Z,2.46
2023-03-03T21:24:02.851Z,2.44
2023-03-03T21:27:23.554Z,2.43
2023-03-03T21:30:20.744Z,2.43
2023-03-03T21:32:51.109Z,2.42
2023-03-03T21:35:22.097Z,2.40
2023-03-03T21:37:56.117Z,2.41
2023-03-03T21:40:28.636Z,2.36
2023-03-03T21:43:01.150Z,2.33
2023-03-03T21:45:30.513Z,2.28
2023-03-03T21:48:01.390Z,2.23
2023-03-03T21:50:33.034Z,2.17
2023-03-03T21:53:01.373Z,2.12
2023-03-03T21:55:29.493Z,2.06
2023-03-03T21:57:57.674Z,2.02
2023-03-03T22:00:25.925Z,1.99
2023-03-03T22:02:58.091Z,1.92
2023-03-03T22:05:26.074Z,1.88
2023-03-03T22:07:54.230Z,1.85
2023-03-03T22:10:23.665Z,1.81
2023-03-03T22:12:51.709Z,1.76
2023-03-03T22:15:19.852Z,1.71
2023-03-03T22:17:47.912Z,1.66
2023-03-03T22:20:18.213Z,1.63
2023-03-03T22:22:47.518Z,1.57
2023-03-03T22:25:15.519Z,1.54
2023-03-03T22:27:43.974Z,1.50
2023-03-03T22:30:12.717Z,1.45
2023-03-03T22:32:40.764Z,1.41
2023-03-03T22:35:09.601Z,1.35
2023-03-03T22:37:37.663Z,1.30
2023-03-03T22:40:06.212Z,1.25
2023-03-03T22:42:34.200Z,1.24
2023-03-03T22:45:02.356Z,1.21
2023-03-03T22:47:30.395Z,1.17
2023-03-03T22:49:59.465Z,1.13
2023-03-03T22:52:27.956Z,1.10
2023-03-03T22:54:58.042Z,1.05
2023-03-03T22:57:30.128Z,1.02
2023-03-03T23:00:00.040Z,0.99
2023-03-03T23:02:29.401Z,0.96
2023-03-03T23:05:01.822Z,0.93
2023-03-03T23:07:30.028Z,0.91
2023-03-03T23:09:57.965Z,0.89
2023-03-03T23:12:26.523Z,0.86
2023-03-03T23:14:54.604Z,0.84
2023-03-03T23:17:24.451Z,0.82
2023-03-03T23:19:52.980Z,0.80
2023-03-03T23:22:21.089Z,0.77
2023-03-03T23:24:49.652Z,0.75
2023-03-03T23:27:17.801Z,0.71
2023-03-03T23:29:45.939Z,0.68
2023-03-03T23:32:14.195Z,0.65
2023-03-03T23:34:42.382Z,0.63
2023-03-03T23:37:11.330Z,0.62
2023-03-03T23:39:40.813Z,0.62
2023-03-03T23:42:08.824Z,0.61
2023-03-03T23:44:40.354Z,0.61
2023-03-03T23:47:08.929Z,0.61
2023-03-03T23:49:38.835Z,0.59
2023-03-03T23:52:09.148Z,0.56
2023-03-03T23:54:37.535Z,0.52
2023-03-03T23:57:08.093Z,0.47
2023-03-03T23:59:38.808Z,0.45
